sensor_id;sensor_type;location;lat;lon;timestamp;temperature;humidity
6662;DHT22;3367;48.714;8.994;2023-07-22T00:00:58;12.70;1.00
6662;DHT22;3367;48.714;8.994;2023-07-22T00:03:25;12.80;6.70
6662;DHT22;3367;48.714;8.994;2023-07-22T00:06:02;12.80;33.30
6662;DHT22;3367;48.714;8.994;2023-07-22T00:08:32;12.70;19.70
6662;DHT22;3367;48.714;8.994;2023-07-22T00:11:08;12.80;43.70
6662;DHT22;3367;48.714;8.994;2023-07-22T00:13:35;12.70;76.10
6662;DHT22;3367;48.714;8.994;2023-07-22T00:16:02;12.70;23.40
6662;DHT22;3367;48.714;8.994;2023-07-22T00:18:30;12.70;73.70
6662;DHT22;3367;48.714;8.994;2023-07-22T00:21:00;12.70;68.70
6662;DHT22;3367;48.714;8.994;2023-07-22T00:23:34;12.60;15.20
6662;DHT22;3367;48.714;8.994;2023-07-22T00:26:04;12.60;1.00
6662;DHT22;3367;48.714;8.994;2023-07-22T00:28:34;12.60;1.00
6662;DHT22;3367;48.714;8.994;2023-07-22T00:31:02;12.60;1.00
6662;DHT22;3367;48.714;8.994;2023-07-22T00:33:32;12.60;56.80
6662;DHT22;3367;48.714;8.994;2023-07-22T00:36:05;12.60;11.20
6662;DHT22;3367;48.714;8.994;2023-07-22T00:38:33;12.50;58.10
6662;DHT22;3367;48.714;8.994;2023-07-22T00:41:02;12.50;79.80
6662;DHT22;3367;48.714;8.994;2023-07-22T00:43:36;12.50;99.90
6662;DHT22;3367;48.714;8.994;2023-07-22T00:46:03;12.60;99.90
6662;DHT22;3367;48.714;8.994;2023-07-22T00:48:38;12.60;99.90
6662;DHT22;3367;48.714;8.994;2023-07-22T00:51:05;12.60;99.90
6662;DHT22;3367;48.714;8.994;2023-07-22T00:53:33;12.60;99.90
6662;DHT22;3367;48.714;8.994;2023-07-22T00:56:09;12.50;99.90
6662;DHT22;3367;48.714;8.994;2023-07-22T00:58:36;12.50;99.90
6662;DHT22;3367;48.714;8.994;2023-07-22T01:01:06;12.50;99.90
6662;DHT22;3367;48.714;8.994;2023-07-22T01:03:33;12.40;99.90
6662;DHT22;3367;48.714;8.994;2023-07-22T01:06:02;12.40;1.00
6662;DHT22;3367;48.714;8.994;2023-07-22T01:08:29;12.40;99.90
6662;DHT22;3367;48.714;8.994;2023-07-22T01:10:57;12.40;1.00
6662;DHT22;3367;48.714;8.994;2023-07-22T01:13:24;12.30;99.90
6662;DHT22;3367;48.714;8.994;2023-07-22T01:15:54;12.30;1.00
6662;DHT22;3367;48.714;8.994;2023-07-22T01:18:24;12.20;1.00
6662;DHT22;3367;48.714;8.994;2023-07-22T01:20:51;12.20;99.90
6662;DHT22;3367;48.714;8.994;2023-07-22T01:23:22;12.10;1.00
6662;DHT22;3367;48.714;8.994;2023-07-22T01:25:52;12.10;1.00
6662;DHT22;3367;48.714;8.994;2023-07-22T01:28:25;12.00;1.00
6662;DHT22;3367;48.714;8.994;2023-07-22T01:30:55;12.00;1.00
6662;DHT22;3367;48.714;8.994;2023-07-22T01:33:30;12.00;1.00
6662;DHT22;3367;48.714;8.994;2023-07-22T01:36:06;11.90;1.00
6662;DHT22;3367;48.714;8.994;2023-07-22T01:38:34;12.00;1.00
6662;DHT22;3367;48.714;8.994;2023-07-22T01:41:01;12.00;1.00
6662;DHT22;3367;48.714;8.994;2023-07-22T01:43:28;11.90;1.00
6662;DHT22;3367;48.714;8.994;2023-07-22T01:45:54;11.80;1.00
6662;DHT22;3367;48.714;8.994;2023-07-22T01:48:21;11.80;1.00
6662;DHT22;3367;48.714;8.994;2023-07-22T01:50:51;11.90;1.00
6662;DHT22;3367;48.714;8.994;2023-07-22T01:53:18;11.80;1.00
6662;DHT22;3367;48.714;8.994;2023-07-22T01:55:50;11.70;1.00
6662;DHT22;3367;48.714;8.994;2023-07-22T01:58:16;11.70;1.00
6662;DHT22;3367;48.714;8.994;2023-07-22T02:00:49;11.60;1.00
6662;DHT22;3367;48.714;8.994;2023-07-22T02:03:16;11.60;1.00
6662;DHT22;3367;48.714;8.994;2023-07-22T02:05:43;11.60;1.00
6662;DHT22;3367;48.714;8.994;2023-07-22T02:08:15;11.60;1.00
6662;DHT22;3367;48.714;8.994;2023-07-22T02:10:42;11.60;1.00
6662;DHT22;3367;48.714;8.994;2023-07-22T02:13:10;11.50;1.00
6662;DHT22;3367;48.714;8.994;2023-07-22T02:15:37;11.50;1.00
6662;DHT22;3367;48.714;8.994;2023-07-22T02:18:07;11.50;1.00
6662;DHT22;3367;48.714;8.994;2023-07-22T02:20:36;11.60;1.00
6662;DHT22;3367;48.714;8.994;2023-07-22T02:23:03;11.40;1.00
6662;DHT22;3367;48.714;8.994;2023-07-22T02:25:30;11.40;1.00
6662;DHT22;3367;48.714;8.994;2023-07-22T02:28:03;11.40;1.00
6662;DHT22;3367;48.714;8.994;2023-07-22T02:30:33;11.40;1.00
6662;DHT22;3367;48.714;8.994;2023-07-22T02:33:01;11.60;4.30
6662;DHT22;3367;48.714;8.994;2023-07-22T02:35:37;11.40;1.00
6662;DHT22;3367;48.714;8.994;2023-07-22T02:38:07;11.40;1.00
6662;DHT22;3367;48.714;8.994;2023-07-22T02:40:40;11.90;1.00
6662;DHT22;3367;48.714;8.994;2023-07-22T02:43:07;11.40;1.00
6662;DHT22;3367;48.714;8.994;2023-07-22T02:45:36;11.40;30.50
6662;DHT22;3367;48.714;8.994;2023-07-22T02:48:07;11.40;99.20
6662;DHT22;3367;48.714;8.994;2023-07-22T02:50:37;11.40;99.90
6662;DHT22;3367;48.714;8.994;2023-07-22T02:53:09;11.40;76.50
6662;DHT22;3367;48.714;8.994;2023-07-22T02:55:36;11.40;86.10
6662;DHT22;3367;48.714;8.994;2023-07-22T02:58:05;11.40;66.80
6662;DHT22;3367;48.714;8.994;2023-07-22T03:00:37;11.40;99.90
6662;DHT22;3367;48.714;8.994;2023-07-22T03:03:04;11.40;99.90
6662;DHT22;3367;48.714;8.994;2023-07-22T03:05:31;11.60;99.90
6662;DHT22;3367;48.714;8.994;2023-07-22T03:07:59;11.50;99.90
6662;DHT22;3367;48.714;8.994;2023-07-22T03:10:26;11.50;99.90
6662;DHT22;3367;48.714;8.994;2023-07-22T03:12:57;11.50;99.90
6662;DHT22;3367;48.714;8.994;2023-07-22T03:15:29;11.50;99.90
6662;DHT22;3367;48.714;8.994;2023-07-22T03:17:57;11.70;77.20
6662;DHT22;3367;48.714;8.994;2023-07-22T03:20:27;11.60;1.00
6662;DHT22;3367;48.714;8.994;2023-07-22T03:22:57;11.30;1.00
6662;DHT22;3367;48.714;8.994;2023-07-22T03:25:24;11.30;1.00
6662;DHT22;3367;48.714;8.994;2023-07-22T03:27:54;11.30;18.10
6662;DHT22;3367;48.714;8.994;2023-07-22T03:30:22;11.30;1.00
6662;DHT22;3367;48.714;8.994;2023-07-22T03:32:49;11.30;1.00
6662;DHT22;3367;48.714;8.994;2023-07-22T03:35:23;11.30;1.00
6662;DHT22;3367;48.714;8.994;2023-07-22T03:37:53;11.30;1.00
6662;DHT22;3367;48.714;8.994;2023-07-22T03:40:23;11.20;1.00
6662;DHT22;3367;48.714;8.994;2023-07-22T03:43:01;11.20;1.00
6662;DHT22;3367;48.714;8.994;2023-07-22T03:45:28;11.20;1.00
6662;DHT22;3367;48.714;8.994;2023-07-22T03:47:59;11.50;1.00
6662;DHT22;3367;48.714;8.994;2023-07-22T03:50:28;11.30;1.00
6662;DHT22;3367;48.714;8.994;2023-07-22T03:52:55;11.20;1.00
6662;DHT22;3367;48.714;8.994;2023-07-22T03:55:24;11.20;1.00
6662;DHT22;3367;48.714;8.994;2023-07-22T03:57:51;11.20;1.00
6662;DHT22;3367;48.714;8.994;2023-07-22T04:00:21;11.30;1.00
6662;DHT22;3367;48.714;8.994;2023-07-22T04:02:50;11.30;30.30
6662;DHT22;3367;48.714;8.994;2023-07-22T04:05:23;11.30;99.90
6662;DHT22;3367;48.714;8.994;2023-07-22T04:07:53;11.40;99.90
6662;DHT22;3367;48.714;8.994;2023-07-22T04:10:20;11.40;67.90
6662;DHT22;3367;48.714;8.994;2023-07-22T04:12:46;11.40;81.00
6662;DHT22;3367;48.714;8.994;2023-07-22T04:15:16;11.90;99.90
6662;DHT22;3367;48.714;8.994;2023-07-22T04:21:05;11.60;60.20
6662;DHT22;3367;48.714;8.994;2023-07-22T04:23:33;11.70;21.70
6662;DHT22;3367;48.714;8.994;2023-07-22T04:26:02;11.80;1.00
6662;DHT22;3367;48.714;8.994;2023-07-22T04:28:33;11.80;1.00
6662;DHT22;3367;48.714;8.994;2023-07-22T04:31:03;11.90;1.00
6662;DHT22;3367;48.714;8.994;2023-07-22T04:33:32;11.90;1.00
6662;DHT22;3367;48.714;8.994;2023-07-22T04:36:02;11.90;1.00
6662;DHT22;3367;48.714;8.994;2023-07-22T04:38:29;12.00;1.00
6662;DHT22;3367;48.714;8.994;2023-07-22T04:40:57;12.10;1.00
6662;DHT22;3367;48.714;8.994;2023-07-22T04:43:24;12.10;1.00
6662;DHT22;3367;48.714;8.994;2023-07-22T04:45:52;12.70;1.00
6662;DHT22;3367;48.714;8.994;2023-07-22T04:48:22;12.20;1.00
6662;DHT22;3367;48.714;8.994;2023-07-22T04:50:49;12.20;99.90
6662;DHT22;3367;48.714;8.994;2023-07-22T04:53:17;12.30;99.90
6662;DHT22;3367;48.714;8.994;2023-07-22T04:55:46;12.40;99.90
6662;DHT22;3367;48.714;8.994;2023-07-22T04:58:40;12.50;99.90
6662;DHT22;3367;48.714;8.994;2023-07-22T05:01:07;12.60;99.90
6662;DHT22;3367;48.714;8.994;2023-07-22T05:03:35;12.80;99.90
6662;DHT22;3367;48.714;8.994;2023-07-22T05:06:02;13.00;99.90
6662;DHT22;3367;48.714;8.994;2023-07-22T05:08:29;13.00;99.90
6662;DHT22;3367;48.714;8.994;2023-07-22T05:10:55;13.20;93.40
6662;DHT22;3367;48.714;8.994;2023-07-22T05:13:23;13.20;35.70
6662;DHT22;3367;48.714;8.994;2023-07-22T05:15:53;13.30;1.00
6662;DHT22;3367;48.714;8.994;2023-07-22T05:18:20;13.50;1.00
6662;DHT22;3367;48.714;8.994;2023-07-22T05:20:46;13.50;1.00
6662;DHT22;3367;48.714;8.994;2023-07-22T05:23:13;13.60;1.00
6662;DHT22;3367;48.714;8.994;2023-07-22T05:25:40;13.70;1.00
6662;DHT22;3367;48.714;8.994;2023-07-22T05:28:09;13.80;1.00
6662;DHT22;3367;48.714;8.994;2023-07-22T05:30:37;13.90;1.00
6662;DHT22;3367;48.714;8.994;2023-07-22T05:33:06;14.30;1.00
6662;DHT22;3367;48.714;8.994;2023-07-22T05:35:33;14.70;99.90
6662;DHT22;3367;48.714;8.994;2023-07-22T05:38:03;15.10;99.90
6662;DHT22;3367;48.714;8.994;2023-07-22T05:40:37;15.60;91.70
6662;DHT22;3367;48.714;8.994;2023-07-22T05:43:07;16.30;1.00
6662;DHT22;3367;48.714;8.994;2023-07-22T05:45:40;16.90;1.00
6662;DHT22;3367;48.714;8.994;2023-07-22T05:48:07;17.40;1.00
6662;DHT22;3367;48.714;8.994;2023-07-22T05:50:37;17.70;1.00
6662;DHT22;3367;48.714;8.994;2023-07-22T05:53:04;18.00;1.00
6662;DHT22;3367;48.714;8.994;2023-07-22T05:55:36;18.40;1.00
6662;DHT22;3367;48.714;8.994;2023-07-22T05:58:06;18.60;1.00
6662;DHT22;3367;48.714;8.994;2023-07-22T06:00:40;18.70;1.00
6662;DHT22;3367;48.714;8.994;2023-07-22T06:03:07;19.10;1.00
6662;DHT22;3367;48.714;8.994;2023-07-22T06:05:34;19.50;1.00
6662;DHT22;3367;48.714;8.994;2023-07-22T06:08:01;19.60;1.00
6662;DHT22;3367;48.714;8.994;2023-07-22T06:10:31;19.70;1.00
6662;DHT22;3367;48.714;8.994;2023-07-22T06:12:57;20.00;1.00
6662;DHT22;3367;48.714;8.994;2023-07-22T06:15:26;20.20;1.00
6662;DHT22;3367;48.714;8.994;2023-07-22T06:17:57;20.30;1.00
6662;DHT22;3367;48.714;8.994;2023-07-22T06:20:24;20.30;1.00
6662;DHT22;3367;48.714;8.994;2023-07-22T06:22:53;20.40;1.00
6662;DHT22;3367;48.714;8.994;2023-07-22T06:25:22;20.80;1.00
6662;DHT22;3367;48.714;8.994;2023-07-22T06:27:52;21.00;1.00
6662;DHT22;3367;48.714;8.994;2023-07-22T06:30:19;21.10;1.00
6662;DHT22;3367;48.714;8.994;2023-07-22T06:32:49;21.10;1.00
6662;DHT22;3367;48.714;8.994;2023-07-22T06:35:17;21.00;1.00
6662;DHT22;3367;48.714;8.994;2023-07-22T06:37:53;21.20;1.00
6662;DHT22;3367;48.714;8.994;2023-07-22T06:40:20;21.30;1.00
6662;DHT22;3367;48.714;8.994;2023-07-22T06:42:52;21.50;1.00
6662;DHT22;3367;48.714;8.994;2023-07-22T06:45:24;21.60;1.00
6662;DHT22;3367;48.714;8.994;2023-07-22T06:47:51;21.60;1.00
6662;DHT22;3367;48.714;8.994;2023-07-22T06:50:19;21.60;1.00
6662;DHT22;3367;48.714;8.994;2023-07-22T06:52:46;21.60;1.00
6662;DHT22;3367;48.714;8.994;2023-07-22T06:55:15;21.80;1.00
6662;DHT22;3367;48.714;8.994;2023-07-22T06:57:48;22.10;1.00
6662;DHT22;3367;48.714;8.994;2023-07-22T07:00:15;22.20;1.00
6662;DHT22;3367;48.714;8.994;2023-07-22T07:02:42;22.40;1.00
6662;DHT22;3367;48.714;8.994;2023-07-22T07:05:12;22.40;1.00
6662;DHT22;3367;48.714;8.994;2023-07-22T07:07:40;22.40;1.00
6662;DHT22;3367;48.714;8.994;2023-07-22T07:10:10;22.80;1.00
6662;DHT22;3367;48.714;8.994;2023-07-22T07:12:37;23.00;1.00
6662;DHT22;3367;48.714;8.994;2023-07-22T07:15:04;23.10;1.00
6662;DHT22;3367;48.714;8.994;2023-07-22T07:17:34;23.10;1.00
6662;DHT22;3367;48.714;8.994;2023-07-22T07:20:09;23.30;1.00
6662;DHT22;3367;48.714;8.994;2023-07-22T07:22:36;23.50;1.00
6662;DHT22;3367;48.714;8.994;2023-07-22T07:25:07;23.90;1.00
6662;DHT22;3367;48.714;8.994;2023-07-22T07:27:39;24.20;1.00
6662;DHT22;3367;48.714;8.994;2023-07-22T07:30:07;24.30;1.00
6662;DHT22;3367;48.714;8.994;2023-07-22T07:32:35;24.40;1.00
6662;DHT22;3367;48.714;8.994;2023-07-22T07:35:04;24.20;1.00
6662;DHT22;3367;48.714;8.994;2023-07-22T07:37:34;24.20;1.00
6662;DHT22;3367;48.714;8.994;2023-07-22T07:40:06;23.80;1.00
6662;DHT22;3367;48.714;8.994;2023-07-22T07:42:37;23.90;1.00
6662;DHT22;3367;48.714;8.994;2023-07-22T07:45:04;23.90;1.00
6662;DHT22;3367;48.714;8.994;2023-07-22T07:47:34;23.90;1.00
6662;DHT22;3367;48.714;8.994;2023-07-22T07:50:04;24.10;1.00
6662;DHT22;3367;48.714;8.994;2023-07-22T07:52:34;24.40;1.00
6662;DHT22;3367;48.714;8.994;2023-07-22T07:55:00;24.40;1.00
6662;DHT22;3367;48.714;8.994;2023-07-22T07:57:29;24.40;1.00
6662;DHT22;3367;48.714;8.994;2023-07-22T08:00:02;24.40;1.00
6662;DHT22;3367;48.714;8.994;2023-07-22T08:02:33;24.40;1.00
6662;DHT22;3367;48.714;8.994;2023-07-22T08:05:03;24.70;1.00
6662;DHT22;3367;48.714;8.994;2023-07-22T08:07:31;24.90;1.00
6662;DHT22;3367;48.714;8.994;2023-07-22T08:09:58;24.90;1.00
6662;DHT22;3367;48.714;8.994;2023-07-22T08:12:24;25.10;1.00
6662;DHT22;3367;48.714;8.994;2023-07-22T08:14:55;25.00;1.00
6662;DHT22;3367;48.714;8.994;2023-07-22T08:17:22;25.10;1.00
6662;DHT22;3367;48.714;8.994;2023-07-22T08:19:56;25.30;1.00
6662;DHT22;3367;48.714;8.994;2023-07-22T08:22:23;25.50;1.00
6662;DHT22;3367;48.714;8.994;2023-07-22T08:24:50;25.20;1.00
6662;DHT22;3367;48.714;8.994;2023-07-22T08:27:20;24.70;1.00
6662;DHT22;3367;48.714;8.994;2023-07-22T08:29:48;24.60;1.00
6662;DHT22;3367;48.714;8.994;2023-07-22T08:32:17;24.50;1.00
6662;DHT22;3367;48.714;8.994;2023-07-22T08:34:43;24.60;1.00
6662;DHT22;3367;48.714;8.994;2023-07-22T08:37:12;24.70;1.00
6662;DHT22;3367;48.714;8.994;2023-07-22T08:39:39;25.30;1.00
6662;DHT22;3367;48.714;8.994;2023-07-22T08:42:21;25.30;1.00
6662;DHT22;3367;48.714;8.994;2023-07-22T08:44:53;24.90;1.00
6662;DHT22;3367;48.714;8.994;2023-07-22T08:47:31;24.50;1.00
6662;DHT22;3367;48.714;8.994;2023-07-22T08:50:02;24.30;1.00
6662;DHT22;3367;48.714;8.994;2023-07-22T08:52:33;24.00;1.00
6662;DHT22;3367;48.714;8.994;2023-07-22T08:55:00;23.90;1.00
6662;DHT22;3367;48.714;8.994;2023-07-22T08:57:29;23.70;1.00
6662;DHT22;3367;48.714;8.994;2023-07-22T08:59:59;23.60;1.00
6662;DHT22;3367;48.714;8.994;2023-07-22T09:02:30;23.80;1.00
6662;DHT22;3367;48.714;8.994;2023-07-22T09:04:58;23.60;1.00
6662;DHT22;3367;48.714;8.994;2023-07-22T09:07:25;23.80;1.00
6662;DHT22;3367;48.714;8.994;2023-07-22T09:09:56;23.60;1.00
6662;DHT22;3367;48.714;8.994;2023-07-22T09:12:24;23.50;1.00
6662;DHT22;3367;48.714;8.994;2023-07-22T09:14:52;23.30;1.00
6662;DHT22;3367;48.714;8.994;2023-07-22T09:17:19;23.40;1.00
6662;DHT22;3367;48.714;8.994;2023-07-22T09:19:51;23.80;1.00
6662;DHT22;3367;48.714;8.994;2023-07-22T09:22:25;23.90;1.00
6662;DHT22;3367;48.714;8.994;2023-07-22T09:24:53;24.20;1.00
6662;DHT22;3367;48.714;8.994;2023-07-22T09:27:35;24.00;1.00
6662;DHT22;3367;48.714;8.994;2023-07-22T09:30:20;23.90;1.00
6662;DHT22;3367;48.714;8.994;2023-07-22T09:32:51;23.90;1.00
6662;DHT22;3367;48.714;8.994;2023-07-22T09:35:43;24.00;1.00
6662;DHT22;3367;48.714;8.994;2023-07-22T09:38:10;23.80;1.00
6662;DHT22;3367;48.714;8.994;2023-07-22T09:40:40;24.00;1.00
6662;DHT22;3367;48.714;8.994;2023-07-22T09:43:10;24.10;1.00
6662;DHT22;3367;48.714;8.994;2023-07-22T09:45:37;24.30;1.00
6662;DHT22;3367;48.714;8.994;2023-07-22T09:48:04;24.10;1.00
6662;DHT22;3367;48.714;8.994;2023-07-22T09:50:31;24.00;1.00
6662;DHT22;3367;48.714;8.994;2023-07-22T09:53:02;24.10;1.00
6662;DHT22;3367;48.714;8.994;2023-07-22T09:55:39;24.20;1.00
6662;DHT22;3367;48.714;8.994;2023-07-22T09:58:06;24.20;1.00
6662;DHT22;3367;48.714;8.994;2023-07-22T10:00:35;24.30;1.00
6662;DHT22;3367;48.714;8.994;2023-07-22T10:03:10;24.20;1.00
6662;DHT22;3367;48.714;8.994;2023-07-22T10:05:40;24.30;1.00
6662;DHT22;3367;48.714;8.994;2023-07-22T10:08:10;24.40;1.00
6662;DHT22;3367;48.714;8.994;2023-07-22T10:10:38;24.50;1.00
6662;DHT22;3367;48.714;8.994;2023-07-22T10:13:06;24.40;1.00
6662;DHT22;3367;48.714;8.994;2023-07-22T10:15:34;24.40;1.00
6662;DHT22;3367;48.714;8.994;2023-07-22T10:18:04;24.40;1.00
6662;DHT22;3367;48.714;8.994;2023-07-22T10:20:34;24.30;1.00
6662;DHT22;3367;48.714;8.994;2023-07-22T10:23:09;24.20;1.00
6662;DHT22;3367;48.714;8.994;2023-07-22T10:25:38;24.10;1.00
6662;DHT22;3367;48.714;8.994;2023-07-22T10:28:12;24.00;1.00
6662;DHT22;3367;48.714;8.994;2023-07-22T10:30:40;24.20;1.00
6662;DHT22;3367;48.714;8.994;2023-07-22T10:33:08;24.50;1.00
6662;DHT22;3367;48.714;8.994;2023-07-22T10:35:41;24.70;1.00
6662;DHT22;3367;48.714;8.994;2023-07-22T10:38:13;25.00;1.00
6662;DHT22;3367;48.714;8.994;2023-07-22T10:40:53;25.10;1.00
6662;DHT22;3367;48.714;8.994;2023-07-22T10:43:24;25.20;1.00
6662;DHT22;3367;48.714;8.994;2023-07-22T10:45:59;25.30;1.00
6662;DHT22;3367;48.714;8.994;2023-07-22T10:48:35;25.10;1.00
6662;DHT22;3367;48.714;8.994;2023-07-22T10:51:06;24.90;1.00
6662;DHT22;3367;48.714;8.994;2023-07-22T10:53:40;24.90;1.00
6662;DHT22;3367;48.714;8.994;2023-07-22T10:56:13;24.80;1.00
6662;DHT22;3367;48.714;8.994;2023-07-22T10:59:03;24.60;1.00
6662;DHT22;3367;48.714;8.994;2023-07-22T11:01:35;24.50;1.00
6662;DHT22;3367;48.714;8.994;2023-07-22T11:04:14;24.20;1.00
6662;DHT22;3367;48.714;8.994;2023-07-22T11:06:54;23.90;1.00
6662;DHT22;3367;48.714;8.994;2023-07-22T11:09:39;23.60;1.00
6662;DHT22;3367;48.714;8.994;2023-07-22T11:12:09;23.50;1.00
6662;DHT22;3367;48.714;8.994;2023-07-22T11:14:45;23.90;1.00
6662;DHT22;3367;48.714;8.994;2023-07-22T11:17:16;23.90;1.00
6662;DHT22;3367;48.714;8.994;2023-07-22T11:19:43;24.30;1.00
6662;DHT22;3367;48.714;8.994;2023-07-22T11:22:10;24.70;1.00
6662;DHT22;3367;48.714;8.994;2023-07-22T11:24:39;25.00;1.00
6662;DHT22;3367;48.714;8.994;2023-07-22T11:27:07;25.00;1.00
6662;DHT22;3367;48.714;8.994;2023-07-22T11:29:42;24.70;1.00
6662;DHT22;3367;48.714;8.994;2023-07-22T11:32:15;24.70;1.00
6662;DHT22;3367;48.714;8.994;2023-07-22T11:34:45;24.70;1.00
6662;DHT22;3367;48.714;8.994;2023-07-22T11:37:12;24.80;1.00
6662;DHT22;3367;48.714;8.994;2023-07-22T11:39:50;24.70;1.00
6662;DHT22;3367;48.714;8.994;2023-07-22T11:42:18;24.80;1.00
6662;DHT22;3367;48.714;8.994;2023-07-22T11:44:44;24.60;1.00
6662;DHT22;3367;48.714;8.994;2023-07-22T11:47:11;24.70;1.00
6662;DHT22;3367;48.714;8.994;2023-07-22T11:49:40;24.80;1.00
6662;DHT22;3367;48.714;8.994;2023-07-22T11:52:09;24.80;1.00
6662;DHT22;3367;48.714;8.994;2023-07-22T11:54:40;25.00;1.00
6662;DHT22;3367;48.714;8.994;2023-07-22T11:57:13;25.20;1.00
6662;DHT22;3367;48.714;8.994;2023-07-22T11:59:45;25.40;1.00
6662;DHT22;3367;48.714;8.994;2023-07-22T12:02:13;25.40;1.00
6662;DHT22;3367;48.714;8.994;2023-07-22T12:04:40;25.40;1.00
6662;DHT22;3367;48.714;8.994;2023-07-22T12:07:24;25.60;1.00
6662;DHT22;3367;48.714;8.994;2023-07-22T12:09:52;26.00;1.00
6662;DHT22;3367;48.714;8.994;2023-07-22T12:12:20;25.90;1.00
6662;DHT22;3367;48.714;8.994;2023-07-22T12:14:50;25.80;1.00
6662;DHT22;3367;48.714;8.994;2023-07-22T12:17:22;25.90;1.00
6662;DHT22;3367;48.714;8.994;2023-07-22T12:19:52;25.90;1.00
6662;DHT22;3367;48.714;8.994;2023-07-22T12:22:22;26.10;1.00
6662;DHT22;3367;48.714;8.994;2023-07-22T12:24:49;26.50;1.00
6662;DHT22;3367;48.714;8.994;2023-07-22T12:27:16;26.80;1.00
6662;DHT22;3367;48.714;8.994;2023-07-22T12:29:47;26.90;1.00
6662;DHT22;3367;48.714;8.994;2023-07-22T12:32:14;26.70;1.00
6662;DHT22;3367;48.714;8.994;2023-07-22T12:34:44;26.40;1.00
6662;DHT22;3367;48.714;8.994;2023-07-22T12:37:10;26.00;1.00
6662;DHT22;3367;48.714;8.994;2023-07-22T12:39:37;26.00;1.00
6662;DHT22;3367;48.714;8.994;2023-07-22T12:42:05;25.90;1.00
6662;DHT22;3367;48.714;8.994;2023-07-22T12:44:37;26.10;1.00
6662;DHT22;3367;48.714;8.994;2023-07-22T12:47:06;26.10;1.00
6662;DHT22;3367;48.714;8.994;2023-07-22T12:49:34;26.20;1.00
6662;DHT22;3367;48.714;8.994;2023-07-22T12:52:07;26.40;1.00
6662;DHT22;3367;48.714;8.994;2023-07-22T12:54:38;26.60;1.00
6662;DHT22;3367;48.714;8.994;2023-07-22T12:57:14;26.60;1.00
6662;DHT22;3367;48.714;8.994;2023-07-22T12:59:41;26.50;1.00
6662;DHT22;3367;48.714;8.994;2023-07-22T13:02:12;26.30;1.00
6662;DHT22;3367;48.714;8.994;2023-07-22T13:04:39;26.00;1.00
6662;DHT22;3367;48.714;8.994;2023-07-22T13:07:06;25.80;1.00
6662;DHT22;3367;48.714;8.994;2023-07-22T13:09:36;25.90;1.00
6662;DHT22;3367;48.714;8.994;2023-07-22T13:12:09;26.00;1.00
6662;DHT22;3367;48.714;8.994;2023-07-22T13:14:36;26.10;1.00
6662;DHT22;3367;48.714;8.994;2023-07-22T13:17:06;26.30;1.00
6662;DHT22;3367;48.714;8.994;2023-07-22T13:19:34;26.40;1.00
6662;DHT22;3367;48.714;8.994;2023-07-22T13:22:07;26.40;1.00
6662;DHT22;3367;48.714;8.994;2023-07-22T13:24:34;26.30;1.00
6662;DHT22;3367;48.714;8.994;2023-07-22T13:27:03;26.50;1.00
6662;DHT22;3367;48.714;8.994;2023-07-22T13:29:35;26.50;1.00
6662;DHT22;3367;48.714;8.994;2023-07-22T13:32:14;26.40;1.00
6662;DHT22;3367;48.714;8.994;2023-07-22T13:34:42;26.20;1.00
6662;DHT22;3367;48.714;8.994;2023-07-22T13:37:09;26.10;1.00
6662;DHT22;3367;48.714;8.994;2023-07-22T13:39:36;25.90;1.00
6662;DHT22;3367;48.714;8.994;2023-07-22T13:42:06;25.80;1.00
6662;DHT22;3367;48.714;8.994;2023-07-22T13:44:42;25.80;1.00
6662;DHT22;3367;48.714;8.994;2023-07-22T13:47:08;26.00;1.00
6662;DHT22;3367;48.714;8.994;2023-07-22T13:49:35;25.80;1.00
6662;DHT22;3367;48.714;8.994;2023-07-22T13:52:04;25.70;1.00
6662;DHT22;3367;48.714;8.994;2023-07-22T13:54:36;25.50;1.00
6662;DHT22;3367;48.714;8.994;2023-07-22T13:57:06;25.70;1.00
6662;DHT22;3367;48.714;8.994;2023-07-22T13:59:36;26.00;1.00
6662;DHT22;3367;48.714;8.994;2023-07-22T14:02:03;26.10;1.00
6662;DHT22;3367;48.714;8.994;2023-07-22T14:04:36;25.90;1.00
6662;DHT22;3367;48.714;8.994;2023-07-22T14:07:07;25.60;1.00
6662;DHT22;3367;48.714;8.994;2023-07-22T14:09:49;25.50;1.00
6662;DHT22;3367;48.714;8.994;2023-07-22T14:12:16;25.40;1.00
6662;DHT22;3367;48.714;8.994;2023-07-22T14:14:43;25.60;1.00
6662;DHT22;3367;48.714;8.994;2023-07-22T14:17:15;25.80;1.00
6662;DHT22;3367;48.714;8.994;2023-07-22T14:19:42;25.80;1.00
6662;DHT22;3367;48.714;8.994;2023-07-22T14:22:23;25.90;1.00
6662;DHT22;3367;48.714;8.994;2023-07-22T14:24:52;25.80;1.00
6662;DHT22;3367;48.714;8.994;2023-07-22T14:27:22;25.70;1.00
6662;DHT22;3367;48.714;8.994;2023-07-22T14:29:55;25.50;1.00
6662;DHT22;3367;48.714;8.994;2023-07-22T14:32:43;25.60;1.00
6662;DHT22;3367;48.714;8.994;2023-07-22T14:35:10;25.60;1.00
6662;DHT22;3367;48.714;8.994;2023-07-22T14:37:38;25.90;1.00
6662;DHT22;3367;48.714;8.994;2023-07-22T14:40:06;25.70;1.00
6662;DHT22;3367;48.714;8.994;2023-07-22T14:42:37;25.80;1.00
6662;DHT22;3367;48.714;8.994;2023-07-22T14:45:06;25.60;1.00
6662;DHT22;3367;48.714;8.994;2023-07-22T14:47:39;25.50;1.00
6662;DHT22;3367;48.714;8.994;2023-07-22T14:50:07;25.60;1.00
6662;DHT22;3367;48.714;8.994;2023-07-22T14:52:40;25.70;1.00
6662;DHT22;3367;48.714;8.994;2023-07-22T14:55:08;25.80;1.00
6662;DHT22;3367;48.714;8.994;2023-07-22T14:57:35;25.70;1.00
6662;DHT22;3367;48.714;8.994;2023-07-22T15:00:14;25.70;1.00
6662;DHT22;3367;48.714;8.994;2023-07-22T15:02:49;25.50;1.00
6662;DHT22;3367;48.714;8.994;2023-07-22T15:05:19;25.40;1.00
6662;DHT22;3367;48.714;8.994;2023-07-22T15:07:53;25.30;1.00
6662;DHT22;3367;48.714;8.994;2023-07-22T15:10:20;25.20;1.00
6662;DHT22;3367;48.714;8.994;2023-07-22T15:12:47;25.10;1.00
6662;DHT22;3367;48.714;8.994;2023-07-22T15:15:19;25.20;1.00
6662;DHT22;3367;48.714;8.994;2023-07-22T15:17:46;25.20;1.00
6662;DHT22;3367;48.714;8.994;2023-07-22T15:20:20;25.30;1.00
6662;DHT22;3367;48.714;8.994;2023-07-22T15:22:48;25.30;1.00
6662;DHT22;3367;48.714;8.994;2023-07-22T15:25:15;25.50;1.00
6662;DHT22;3367;48.714;8.994;2023-07-22T15:27:50;25.50;1.00
6662;DHT22;3367;48.714;8.994;2023-07-22T15:30:20;25.30;1.00
6662;DHT22;3367;48.714;8.994;2023-07-22T15:32:52;25.60;1.00
6662;DHT22;3367;48.714;8.994;2023-07-22T15:35:25;25.40;1.00
6662;DHT22;3367;48.714;8.994;2023-07-22T15:38:04;25.40;1.00
6662;DHT22;3367;48.714;8.994;2023-07-22T15:40:34;25.40;1.00
6662;DHT22;3367;48.714;8.994;2023-07-22T15:43:05;25.30;1.00
6662;DHT22;3367;48.714;8.994;2023-07-22T15:45:34;25.30;1.00
6662;DHT22;3367;48.714;8.994;2023-07-22T15:48:10;25.20;1.00
6662;DHT22;3367;48.714;8.994;2023-07-22T15:50:40;25.10;1.00
6662;DHT22;3367;48.714;8.994;2023-07-22T15:53:08;25.20;1.00
6662;DHT22;3367;48.714;8.994;2023-07-22T15:55:35;25.30;1.00
6662;DHT22;3367;48.714;8.994;2023-07-22T15:58:04;25.30;1.00
6662;DHT22;3367;48.714;8.994;2023-07-22T16:00:34;25.40;1.00
6662;DHT22;3367;48.714;8.994;2023-07-22T16:03:14;25.30;1.00
6662;DHT22;3367;48.714;8.994;2023-07-22T16:05:42;25.30;1.00
6662;DHT22;3367;48.714;8.994;2023-07-22T16:08:10;25.20;1.00
6662;DHT22;3367;48.714;8.994;2023-07-22T16:10:37;25.30;1.00
6662;DHT22;3367;48.714;8.994;2023-07-22T16:13:04;25.30;1.00
6662;DHT22;3367;48.714;8.994;2023-07-22T16:15:34;25.30;1.00
6662;DHT22;3367;48.714;8.994;2023-07-22T16:18:01;25.30;1.00
6662;DHT22;3367;48.714;8.994;2023-07-22T16:20:34;25.20;1.00
6662;DHT22;3367;48.714;8.994;2023-07-22T16:23:04;25.20;1.00
6662;DHT22;3367;48.714;8.994;2023-07-22T16:25:37;25.10;1.00
6662;DHT22;3367;48.714;8.994;2023-07-22T16:28:07;25.00;1.00
6662;DHT22;3367;48.714;8.994;2023-07-22T16:30:33;24.90;1.00
6662;DHT22;3367;48.714;8.994;2023-07-22T16:33:03;24.80;1.00
6662;DHT22;3367;48.714;8.994;2023-07-22T16:35:35;24.80;1.00